Time;durP1;ratioP1;P1;durP2;ratioP2;P2;SDS_P1;SDS_P2;PMS_P1;PMS_P2;Temp;Humidity;BMP_temperature;BMP_pressure;BME280_temperature;BME280_humidity;BME280_pressure;Samples;Min_cycle;Max_cycle;Signal;HPM_P1;HPM_P2
2022/11/25 00:02:05;;;;;;;30.52;13.75;;;6.10;79.40;;;;;;4104843;28;20034;-86
2022/11/25 00:04:27;;;;;;;29.05;13.63;;;6.00;79.40;;;;;;4119102;28;20034;-88
2022/11/25 00:06:48;;;;;;;34.78;13.38;;;6.00;79.50;;;;;;4103078;28;20094;-88
2022/11/25 00:09:10;;;;;;;32.38;12.75;;;6.00;79.40;;;;;;4122492;28;20403;-88
2022/11/25 00:11:35;;;;;;;27.92;13.02;;;5.90;79.30;;;;;;4101017;28;21094;-89
2022/11/25 00:13:56;;;;;;;31.77;14.45;;;6.00;79.40;;;;;;4122115;28;20034;-89
2022/11/25 00:16:20;;;;;;;33.20;15.32;;;5.90;79.30;;;;;;4113564;28;20031;-88
2022/11/25 00:18:48;;;;;;;32.13;13.60;;;5.80;79.10;;;;;;4118301;28;20038;-88
2022/11/25 00:21:11;;;;;;;29.17;13.82;;;5.80;79.10;;;;;;4114467;28;20736;-88
2022/11/25 00:23:32;;;;;;;26.45;13.25;;;5.80;79.00;;;;;;4131680;28;20018;-87
2022/11/25 00:25:53;;;;;;;27.55;12.98;;;5.70;79.00;;;;;;4127001;28;20042;-87
2022/11/25 00:28:13;;;;;;;30.13;13.48;;;5.70;79.00;;;;;;4113348;28;20042;-88
2022/11/25 00:30:34;;;;;;;23.02;12.60;;;5.60;78.90;;;;;;4120160;28;20038;-89
2022/11/25 00:32:53;;;;;;;30.33;13.15;;;5.60;79.00;;;;;;4111388;28;20086;-87
2022/11/25 00:35:13;;;;;;;27.58;13.35;;;5.60;79.00;;;;;;4127016;28;20118;-89
2022/11/25 00:37:32;;;;;;;25.10;12.20;;;5.50;78.80;;;;;;4109846;28;20109;-88
2022/11/25 00:39:51;;;;;;;28.15;12.15;;;5.50;78.80;;;;;;4121485;28;20185;-87
2022/11/25 00:44:48;;;;;;;25.80;12.15;;;5.40;78.70;;;;;;4124957;28;20041;-89
2022/11/25 00:47:18;;;;;;;24.15;11.82;;;5.30;78.70;;;;;;4118764;28;20143;-87
2022/11/25 00:49:39;;;;;;;23.63;11.65;;;5.30;78.70;;;;;;4123960;28;20999;-89
2022/11/25 00:51:59;;;;;;;20.27;11.32;;;5.30;78.70;;;;;;4104403;28;20045;-89
2022/11/25 00:54:18;;;;;;;19.38;11.20;;;5.30;78.80;;;;;;4126155;28;20122;-88
2022/11/25 00:56:37;;;;;;;21.83;10.98;;;5.30;78.80;;;;;;4113462;28;20063;-87
2022/11/25 00:58:57;;;;;;;25.67;12.40;;;5.30;78.80;;;;;;4124740;28;20060;-88
2022/11/25 01:01:16;;;;;;;27.63;13.82;;;5.10;78.70;;;;;;4107001;28;20089;-88
2022/11/25 01:03:36;;;;;;;21.95;11.48;;;5.00;78.50;;;;;;4108174;28;20045;-88
2022/11/25 01:06:01;;;;;;;22.27;11.80;;;5.20;78.70;;;;;;4107894;28;20141;-88
2022/11/25 01:08:23;;;;;;;24.83;11.90;;;5.00;78.70;;;;;;4123262;28;20450;-89
2022/11/25 01:10:42;;;;;;;24.17;11.20;;;5.00;78.70;;;;;;4119918;28;20033;-88
2022/11/25 01:13:01;;;;;;;29.05;12.50;;;4.90;78.70;;;;;;4113495;28;20077;-87
2022/11/25 01:15:20;;;;;;;32.70;13.40;;;4.90;78.80;;;;;;4120429;28;20039;-88
2022/11/25 01:17:40;;;;;;;27.25;12.90;;;4.90;78.90;;;;;;4103972;28;20066;-87
2022/11/25 01:19:59;;;;;;;23.60;12.35;;;4.80;78.90;;;;;;4120046;28;20121;-88
2022/11/25 01:22:18;;;;;;;32.05;14.65;;;4.80;79.00;;;;;;4120173;28;20057;-88
2022/11/25 01:24:37;;;;;;;27.02;12.93;;;4.80;78.90;;;;;;4123352;28;20126;-88
2022/11/25 01:26:56;;;;;;;28.08;13.55;;;4.80;78.80;;;;;;4104801;28;20101;-88
2022/11/25 01:29:17;;;;;;;26.60;13.27;;;4.70;78.70;;;;;;4118385;28;20085;-87
2022/11/25 01:31:36;;;;;;;35.05;14.00;;;4.70;78.70;;;;;;4105914;28;20636;-87
2022/11/25 01:34:05;;;;;;;25.27;13.02;;;4.70;78.80;;;;;;4119656;28;20037;-88
2022/11/25 01:36:25;;;;;;;30.77;14.82;;;4.60;78.80;;;;;;4121259;28;21905;-86
2022/11/25 01:38:48;;;;;;;31.38;14.93;;;4.60;78.90;;;;;;4106241;28;20112;-87
2022/11/25 01:41:10;;;;;;;36.60;15.00;;;4.60;78.90;;;;;;4117092;28;20165;-88
2022/11/25 01:43:30;;;;;;;34.13;14.60;;;4.60;79.00;;;;;;4124211;28;20418;-87
2022/11/25 01:45:49;;;;;;;34.90;14.82;;;4.50;79.00;;;;;;4120532;28;20101;-88
2022/11/25 01:48:17;;;;;;;35.70;14.60;;;4.50;79.10;;;;;;4116148;28;20041;-88
2022/11/25 01:50:38;;;;;;;32.28;14.70;;;4.50;79.20;;;;;;4122404;28;20040;-88
2022/11/25 01:52:58;;;;;;;28.85;14.30;;;4.50;79.30;;;;;;4123981;28;20709;-87
2022/11/25 01:55:21;;;;;;;44.33;15.35;;;4.50;79.40;;;;;;4129649;28;20053;-88
2022/11/25 01:57:44;;;;;;;34.83;14.38;;;4.50;79.50;;;;;;4104693;28;20037;-86
2022/11/25 02:00:05;;;;;;;39.42;14.95;;;4.50;79.60;;;;;;4102866;28;20053;-88
2022/11/25 02:02:25;;;;;;;39.50;15.95;;;4.50;79.60;;;;;;4107938;28;20037;-87
2022/11/25 02:04:46;;;;;;;39.30;16.73;;;4.40;79.60;;;;;;4115248;28;20400;-88
2022/11/25 02:07:21;;;;;;;33.38;16.90;;;4.50;79.60;;;;;;4105323;28;20554;-87
2022/11/25 02:09:41;;;;;;;38.17;16.00;;;4.40;79.60;;;;;;4120807;28;20040;-87
2022/11/25 02:12:02;;;;;;;31.48;14.50;;;4.40;79.60;;;;;;4105179;28;20037;-87
2022/11/25 02:14:22;;;;;;;33.08;13.90;;;4.40;79.80;;;;;;4115570;28;20081;-88
2022/11/25 02:16:41;;;;;;;26.58;13.50;;;4.40;79.80;;;;;;4106846;28;20057;-88
2022/11/25 02:19:02;;;;;;;35.35;14.85;;;4.40;79.90;;;;;;4120897;28;20048;-87
2022/11/25 02:21:38;;;;;;;31.27;14.55;;;4.40;80.00;;;;;;4119901;28;20040;-87
2022/11/25 02:24:29;;;;;;;35.67;16.02;;;4.40;80.20;;;;;;4106762;28;20045;-87
2022/11/25 02:26:48;;;;;;;33.63;14.77;;;4.40;80.20;;;;;;4119462;28;20057;-87
2022/11/25 02:29:07;;;;;;;37.88;14.07;;;4.40;80.20;;;;;;4117802;28;20555;-86
2022/11/25 02:31:27;;;;;;;35.65;15.02;;;4.40;80.30;;;;;;4107156;28;20129;-87
2022/11/25 02:33:46;;;;;;;29.38;14.55;;;4.40;81.20;;;;;;4106797;28;20053;-87
2022/11/25 02:36:13;;;;;;;28.35;13.52;;;4.40;80.50;;;;;;4117288;28;20832;-88
2022/11/25 02:38:53;;;;;;;35.65;14.32;;;4.50;80.60;;;;;;4119224;28;20046;-87
2022/11/25 02:41:23;;;;;;;33.05;14.70;;;4.50;80.80;;;;;;4122180;28;20060;-85
2022/11/25 02:43:42;;;;;;;32.17;13.88;;;4.50;80.80;;;;;;4102612;28;20095;-86
2022/11/25 02:46:05;;;;;;;35.47;14.48;;;4.50;80.80;;;;;;4107773;28;21189;-88
2022/11/25 02:48:27;;;;;;;34.57;14.33;;;4.50;80.80;;;;;;4119998;28;20069;-88
2022/11/25 02:50:47;;;;;;;28.30;13.32;;;4.50;80.80;;;;;;4110950;28;20065;-87
2022/11/25 02:53:07;;;;;;;31.27;13.50;;;4.50;80.80;;;;;;4127930;28;20037;-86
2022/11/25 02:55:26;;;;;;;32.90;14.20;;;4.60;80.80;;;;;;4127285;28;20041;-87
2022/11/25 02:57:45;;;;;;;30.73;13.52;;;4.50;80.70;;;;;;4118061;28;20085;-86
2022/11/25 03:00:06;;;;;;;31.27;13.00;;;4.50;80.80;;;;;;4118792;28;20042;-87
2022/11/25 03:02:25;;;;;;;29.70;13.35;;;4.50;80.70;;;;;;4119593;28;20097;-86
2022/11/25 03:04:44;;;;;;;33.13;14.73;;;4.60;80.80;;;;;;4122784;28;20045;-86
2022/11/25 03:07:03;;;;;;;30.35;13.63;;;4.50;80.70;;;;;;4120974;28;20092;-86
2022/11/25 03:09:22;;;;;;;30.30;13.52;;;4.50;80.80;;;;;;4115841;28;20040;-87
2022/11/25 03:14:20;;;;;;;28.77;13.80;;;4.50;80.80;;;;;;4117559;28;20313;-87
2022/11/25 03:16:39;;;;;;;31.30;13.75;;;4.50;80.90;;;;;;4119082;28;20131;-87
2022/11/25 03:18:58;;;;;;;31.63;13.68;;;4.60;81.10;;;;;;4124902;28;20045;-86
2022/11/25 03:21:17;;;;;;;36.47;13.25;;;4.60;81.10;;;;;;4118245;28;20113;-87
2022/11/25 03:23:36;;;;;;;34.33;13.50;;;4.70;81.20;;;;;;4103444;28;20355;-87
2022/11/25 03:25:55;;;;;;;29.75;13.32;;;4.60;81.30;;;;;;4121771;28;20049;-86
2022/11/25 03:28:14;;;;;;;27.27;13.05;;;4.70;81.20;;;;;;4115532;28;20042;-87
2022/11/25 03:30:33;;;;;;;28.67;12.90;;;4.60;81.10;;;;;;4124360;28;20066;-87
2022/11/25 03:32:52;;;;;;;32.00;13.38;;;4.70;81.20;;;;;;4107777;28;20037;-87
2022/11/25 03:35:12;;;;;;;25.38;12.85;;;4.70;81.20;;;;;;4122801;28;20141;-86
2022/11/25 03:37:31;;;;;;;28.90;14.30;;;4.70;82.00;;;;;;4124661;28;20037;-87
2022/11/25 03:39:50;;;;;;;26.45;13.10;;;4.70;81.20;;;;;;4120938;28;20136;-86
2022/11/25 03:42:10;;;;;;;30.90;12.63;;;4.70;81.20;;;;;;4120967;28;20034;-87
2022/11/25 03:44:29;;;;;;;27.85;13.18;;;4.70;81.20;;;;;;4104509;28;20133;-87
2022/11/25 03:46:48;;;;;;;25.95;12.43;;;4.90;81.40;;;;;;4101418;28;20096;-88
2022/11/25 03:49:07;;;;;;;28.25;13.20;;;4.70;81.20;;;;;;4105295;28;20038;-88
2022/11/25 03:51:27;;;;;;;27.45;13.05;;;4.80;81.30;;;;;;4120061;28;20033;-87
2022/11/25 03:53:46;;;;;;;29.95;13.05;;;4.80;81.30;;;;;;4107166;28;20118;-86
2022/11/25 03:56:05;;;;;;;30.20;12.80;;;4.80;81.30;;;;;;4117099;28;20051;-87
2022/11/25 03:58:24;;;;;;;32.17;12.68;;;4.80;81.30;;;;;;4125076;28;20053;-87
2022/11/25 04:00:43;;;;;;;27.63;12.88;;;4.80;81.30;;;;;;4105516;28;20589;-87
2022/11/25 04:03:02;;;;;;;29.15;13.52;;;4.80;81.30;;;;;;4110939;28;20065;-88
2022/11/25 04:05:21;;;;;;;27.90;12.93;;;4.80;81.30;;;;;;4119550;28;20125;-88
2022/11/25 04:07:40;;;;;;;27.90;12.70;;;4.80;81.30;;;;;;4108806;28;20073;-88
2022/11/25 04:09:59;;;;;;;33.30;13.77;;;4.80;81.20;;;;;;4109705;28;20045;-88
2022/11/25 04:14:56;;;;;;;25.58;12.05;;;4.90;81.30;;;;;;4119704;28;20514;-87
2022/11/25 04:17:16;;;;;;;30.33;12.55;;;4.90;81.30;;;;;;4103493;28;20050;-86
2022/11/25 04:19:35;;;;;;;27.85;13.00;;;4.80;81.20;;;;;;4116546;28;20406;-86
2022/11/25 04:21:54;;;;;;;28.15;12.82;;;4.80;81.20;;;;;;4100470;28;20584;-86
2022/11/25 04:24:13;;;;;;;29.30;13.50;;;4.80;81.20;;;;;;4119007;28;20049;-88
2022/11/25 04:26:32;;;;;;;30.55;13.18;;;4.80;81.20;;;;;;4109382;28;20093;-86
2022/11/25 04:28:51;;;;;;;30.35;12.88;;;4.80;81.20;;;;;;4120733;28;20045;-87
2022/11/25 04:31:10;;;;;;;28.88;12.70;;;4.80;81.20;;;;;;4106663;28;20115;-86
2022/11/25 04:33:29;;;;;;;25.98;12.45;;;4.80;81.20;;;;;;4121826;28;20214;-88
2022/11/25 04:35:48;;;;;;;30.20;12.73;;;5.00;81.30;;;;;;4118999;28;20065;-86
2022/11/25 04:38:07;;;;;;;30.55;13.68;;;5.00;81.40;;;;;;4120830;28;20590;-88
2022/11/25 04:40:26;;;;;;;31.00;13.02;;;4.80;81.30;;;;;;4111653;28;20054;-87
2022/11/25 04:42:45;;;;;;;30.63;13.40;;;4.80;81.30;;;;;;4111701;28;20094;-88
2022/11/25 04:45:11;;;;;;;28.08;12.77;;;4.80;81.20;;;;;;4120430;28;20046;-87
2022/11/25 04:47:30;;;;;;;29.63;14.05;;;4.80;81.20;;;;;;4109325;28;20089;-88
2022/11/25 04:49:50;;;;;;;31.42;14.23;;;4.80;81.20;;;;;;4108002;28;20046;-88
2022/11/25 04:52:10;;;;;;;33.58;13.25;;;4.80;81.20;;;;;;4122425;28;20054;-86
2022/11/25 04:54:29;;;;;;;28.73;14.35;;;4.80;81.20;;;;;;4107234;28;20093;-87
2022/11/25 04:56:48;;;;;;;37.50;14.13;;;4.80;81.20;;;;;;4115388;28;20041;-87
2022/11/25 05:01:45;;;;;;;31.20;14.05;;;4.80;81.00;;;;;;4116345;28;20078;-88
2022/11/25 05:04:04;;;;;;;30.08;14.07;;;4.80;81.00;;;;;;4106072;28;20161;-87
2022/11/25 05:06:23;;;;;;;31.40;13.30;;;4.80;81.00;;;;;;4104553;28;20046;-88
2022/11/25 05:08:43;;;;;;;32.15;14.00;;;4.80;81.00;;;;;;4101013;28;20580;-87
2022/11/25 05:11:02;;;;;;;33.13;14.52;;;4.80;81.80;;;;;;4102657;28;20058;-87
2022/11/25 05:13:21;;;;;;;34.47;14.73;;;4.70;80.90;;;;;;4118937;28;20635;-87
2022/11/25 05:15:40;;;;;;;32.30;15.13;;;4.80;80.90;;;;;;4101824;28;20054;-87
2022/11/25 05:17:59;;;;;;;30.83;15.13;;;4.70;80.80;;;;;;4115209;28;20525;-86
2022/11/25 05:20:19;;;;;;;29.20;14.85;;;4.70;80.80;;;;;;4104365;28;20050;-86
2022/11/25 05:22:38;;;;;;;34.88;15.57;;;4.60;80.70;;;;;;4121550;28;20045;-86
2022/11/25 05:24:57;;;;;;;38.65;15.48;;;4.70;80.80;;;;;;4117843;28;20041;-87
2022/11/25 05:27:17;;;;;;;37.10;15.60;;;4.60;80.70;;;;;;4106927;28;20038;-86
2022/11/25 05:29:37;;;;;;;35.08;16.42;;;4.60;80.70;;;;;;4116129;28;20034;-86
2022/11/25 05:31:56;;;;;;;32.65;15.88;;;4.60;80.60;;;;;;4114836;28;20044;-87
2022/11/25 05:34:15;;;;;;;36.20;15.57;;;4.60;80.60;;;;;;4100758;28;20060;-87
2022/11/25 05:36:34;;;;;;;35.88;16.33;;;4.60;80.60;;;;;;4104819;28;20045;-87
2022/11/25 05:38:55;;;;;;;38.03;17.50;;;4.60;80.60;;;;;;4102934;28;20124;-86
2022/11/25 05:41:15;;;;;;;37.95;17.08;;;4.60;80.70;;;;;;4113631;28;20534;-86
2022/11/25 05:43:34;;;;;;;32.17;14.68;;;4.50;80.60;;;;;;4101093;28;20078;-87
2022/11/25 05:45:53;;;;;;;33.08;16.40;;;4.50;80.60;;;;;;4117263;28;20136;-85
2022/11/25 05:48:12;;;;;;;33.20;15.63;;;4.50;80.60;;;;;;4108988;28;20188;-86
2022/11/25 05:50:31;;;;;;;35.33;16.60;;;4.50;80.70;;;;;;4128429;28;20121;-86
2022/11/25 05:52:51;;;;;;;38.95;16.38;;;4.50;80.70;;;;;;4123857;28;20052;-87
2022/11/25 05:55:10;;;;;;;33.70;16.17;;;4.50;80.70;;;;;;4121139;28;20089;-87
2022/11/25 05:57:30;;;;;;;36.60;15.93;;;4.40;80.80;;;;;;4120927;28;20113;-86
2022/11/25 05:59:49;;;;;;;28.05;13.75;;;4.40;80.80;;;;;;4118350;28;20140;-87
2022/11/25 06:02:08;;;;;;;30.40;14.52;;;4.40;80.90;;;;;;4121251;28;20090;-87
2022/11/25 06:04:27;;;;;;;30.73;13.88;;;4.40;81.00;;;;;;4118266;28;20044;-86
2022/11/25 06:06:46;;;;;;;27.05;13.52;;;4.40;81.10;;;;;;4116885;28;20171;-87
2022/11/25 06:09:05;;;;;;;30.20;13.23;;;4.40;81.20;;;;;;4104748;28;20137;-87
2022/11/25 06:11:25;;;;;;;32.80;13.75;;;4.40;81.30;;;;;;4107029;28;20077;-86
2022/11/25 06:13:44;;;;;;;29.48;13.20;;;4.40;81.40;;;;;;4115341;28;20577;-87
2022/11/25 06:16:08;;;;;;;23.83;11.32;;;4.40;81.50;;;;;;4111167;28;20049;-87
2022/11/25 06:18:28;;;;;;;28.38;12.02;;;4.40;81.60;;;;;;4120252;28;20433;-86
2022/11/25 06:20:56;;;;;;;25.73;11.23;;;4.40;81.60;;;;;;4117269;28;20671;-86
2022/11/25 06:23:15;;;;;;;24.63;10.68;;;4.40;81.70;;;;;;4117260;28;20034;-86
2022/11/25 06:25:35;;;;;;;25.00;11.68;;;4.50;81.80;;;;;;4122614;28;20034;-86
2022/11/25 06:27:54;;;;;;;26.20;11.13;;;4.50;81.90;;;;;;4109463;28;20086;-87
2022/11/25 06:30:14;;;;;;;24.75;10.55;;;4.50;81.90;;;;;;4123430;28;20093;-87
2022/11/25 06:32:39;;;;;;;33.90;11.35;;;4.50;81.90;;;;;;4107309;28;20062;-93
2022/11/25 06:34:58;;;;;;;20.88;10.65;;;4.70;82.00;;;;;;4124564;28;20041;-87
2022/11/25 06:37:17;;;;;;;26.33;10.73;;;4.60;82.00;;;;;;4105314;28;20100;-87
2022/11/25 06:39:36;;;;;;;23.38;10.68;;;4.60;82.00;;;;;;4117025;28;20038;-87
2022/11/25 06:41:56;;;;;;;19.13;9.73;;;4.60;82.00;;;;;;4118644;28;20049;-86
2022/11/25 06:44:15;;;;;;;22.90;9.95;;;4.60;82.00;;;;;;4106778;28;20087;-86
2022/11/25 06:46:34;;;;;;;23.50;9.38;;;4.60;82.00;;;;;;4106490;28;20045;-87
2022/11/25 06:48:53;;;;;;;21.17;9.77;;;4.80;82.20;;;;;;4103894;28;20123;-87
2022/11/25 06:51:14;;;;;;;23.40;10.52;;;4.70;82.10;;;;;;4103661;28;20812;-87
2022/11/25 06:53:34;;;;;;;21.42;10.30;;;4.70;82.10;;;;;;4121731;28;20040;-87
2022/11/25 06:56:07;;;;;;;23.38;8.70;;;4.70;82.10;;;;;;4120240;28;20042;-87
2022/11/25 06:58:26;;;;;;;25.42;9.52;;;4.80;82.20;;;;;;4120366;28;20030;-87
2022/11/25 07:00:45;;;;;;;26.05;9.73;;;4.80;82.10;;;;;;4116679;28;20054;-88
2022/11/25 07:03:04;;;;;;;21.77;9.10;;;4.80;82.10;;;;;;4116045;28;20240;-86
2022/11/25 07:05:24;;;;;;;22.48;9.18;;;4.80;82.20;;;;;;4118795;28;20110;-88
2022/11/25 07:07:43;;;;;;;19.55;9.13;;;5.00;82.40;;;;;;4121226;28;20377;-87
2022/11/25 07:10:03;;;;;;;25.80;10.30;;;4.80;82.20;;;;;;4119387;28;20256;-87
2022/11/25 07:12:22;;;;;;;26.92;10.10;;;4.90;82.30;;;;;;4118029;28;20525;-89
2022/11/25 07:14:41;;;;;;;18.13;9.32;;;4.80;82.20;;;;;;4118898;28;20045;-87
2022/11/25 07:17:00;;;;;;;22.58;9.30;;;4.90;82.30;;;;;;4123372;28;20106;-89
2022/11/25 07:19:19;;;;;;;22.58;8.93;;;4.80;82.20;;;;;;4129241;28;20052;-88
2022/11/25 07:21:40;;;;;;;20.63;8.85;;;4.90;82.30;;;;;;4135030;28;20072;-90
2022/11/25 07:24:01;;;;;;;19.55;8.57;;;5.00;82.30;;;;;;4127424;28;20802;-88
2022/11/25 07:26:23;;;;;;;25.38;8.40;;;5.00;82.30;;;;;;4117617;28;20045;-87
2022/11/25 07:28:43;;;;;;;17.90;8.00;;;5.10;83.10;;;;;;4117833;28;20093;-88
2022/11/25 07:31:08;;;;;;;25.00;8.63;;;5.00;82.30;;;;;;4116884;28;20061;-87
2022/11/25 07:33:27;;;;;;;21.05;8.63;;;5.10;82.40;;;;;;4110528;28;20093;-88
2022/11/25 07:35:46;;;;;;;22.85;8.00;;;5.10;82.40;;;;;;4128919;28;20040;-87
2022/11/25 07:38:05;;;;;;;22.90;8.70;;;5.10;82.40;;;;;;4114388;28;20046;-87
2022/11/25 07:40:24;;;;;;;21.67;7.78;;;5.10;82.40;;;;;;4109639;28;20038;-87
2022/11/25 07:42:43;;;;;;;20.60;7.63;;;5.20;82.50;;;;;;4127802;28;20142;-87
2022/11/25 07:45:03;;;;;;;24.20;8.40;;;5.20;82.40;;;;;;4115873;28;20136;-88
2022/11/25 07:47:23;;;;;;;18.67;7.50;;;5.20;82.40;;;;;;4111420;28;20041;-88
2022/11/25 07:49:43;;;;;;;21.45;8.70;;;5.20;82.30;;;;;;4110158;28;20049;-86
2022/11/25 07:52:03;;;;;;;22.02;8.32;;;5.20;82.30;;;;;;4111812;28;20058;-87
2022/11/25 07:54:23;;;;;;;25.95;8.73;;;5.20;82.20;;;;;;4124319;28;20069;-88
2022/11/25 07:56:47;;;;;;;20.55;8.20;;;5.30;82.20;;;;;;4110089;28;20081;-88
2022/11/25 07:59:09;;;;;;;19.13;8.52;;;5.30;82.30;;;;;;4124494;28;20046;-88
2022/11/25 08:01:29;;;;;;;21.20;9.25;;;5.30;82.20;;;;;;4116179;28;20185;-88
2022/11/25 08:03:49;;;;;;;21.45;9.68;;;5.30;82.20;;;;;;4121251;28;20045;-88
2022/11/25 08:06:14;;;;;;;23.08;9.38;;;5.40;82.10;;;;;;4119863;28;20026;-87
2022/11/25 08:08:35;;;;;;;20.00;9.25;;;5.30;82.00;;;;;;4121316;28;22389;-87
2022/11/25 08:10:54;;;;;;;22.60;9.20;;;5.40;82.10;;;;;;4110160;28;20049;-88
2022/11/25 08:13:14;;;;;;;18.20;8.15;;;5.40;82.10;;;;;;4122584;28;20119;-88
2022/11/25 08:15:33;;;;;;;21.25;8.30;;;5.40;82.10;;;;;;4108825;28;20065;-88
2022/11/25 08:17:52;;;;;;;23.20;8.20;;;5.40;82.10;;;;;;4122007;28;20169;-88
2022/11/25 08:20:12;;;;;;;30.05;9.02;;;5.40;82.10;;;;;;4107026;28;20048;-88
2022/11/25 08:22:31;;;;;;;18.38;7.80;;;5.30;82.10;;;;;;4114008;28;20043;-87
2022/11/25 08:24:50;;;;;;;17.15;7.20;;;5.40;82.20;;;;;;4123555;28;20449;-89
2022/11/25 08:27:09;;;;;;;19.85;8.23;;;5.50;82.20;;;;;;4136711;28;20104;-89
2022/11/25 08:29:28;;;;;;;24.20;7.63;;;5.50;82.30;;;;;;4125184;28;20081;-89
2022/11/25 08:31:47;;;;;;;21.67;7.80;;;5.50;82.30;;;;;;4128657;28;20810;-89
2022/11/25 08:34:06;;;;;;;17.98;7.32;;;5.50;82.30;;;;;;4128174;28;20557;-88
2022/11/25 08:36:29;;;;;;;23.63;8.25;;;5.50;82.30;;;;;;4113965;28;20118;-89
2022/11/25 08:38:51;;;;;;;18.15;7.18;;;5.60;82.30;;;;;;4121309;28;20053;-88
2022/11/25 08:41:32;;;;;;;15.63;7.13;;;5.60;82.30;;;;;;4103800;28;20090;-90
2022/11/25 08:43:52;;;;;;;14.80;6.68;;;5.60;82.40;;;;;;4101332;28;21154;-88
2022/11/25 08:46:17;;;;;;;24.10;7.43;;;5.60;82.30;;;;;;4111580;28;20108;-89
2022/11/25 08:48:36;;;;;;;22.85;7.22;;;5.60;82.30;;;;;;4108184;28;20085;-88
2022/11/25 08:50:56;;;;;;;16.42;6.88;;;5.60;82.20;;;;;;4117592;28;20133;-88
2022/11/25 08:53:16;;;;;;;21.20;6.78;;;5.70;82.30;;;;;;4121920;28;20053;-89
2022/11/25 08:55:37;;;;;;;25.52;6.38;;;5.70;82.30;;;;;;4105827;28;20050;-89
2022/11/25 08:57:56;;;;;;;18.83;6.53;;;5.80;82.40;;;;;;4108472;28;20314;-89
2022/11/25 09:00:16;;;;;;;16.15;6.25;;;5.70;82.30;;;;;;4103814;28;20193;-88
2022/11/25 09:02:35;;;;;;;15.45;5.93;;;5.80;82.30;;;;;;4121996;28;20046;-89
2022/11/25 09:04:54;;;;;;;19.52;6.28;;;5.80;82.30;;;;;;4109048;28;20053;-88
2022/11/25 09:07:13;;;;;;;13.10;5.90;;;5.80;82.20;;;;;;4105152;28;20118;-88
2022/11/25 09:09:32;;;;;;;19.38;6.47;;;5.80;82.20;;;;;;4102924;28;20046;-89
2022/11/25 09:11:52;;;;;;;17.52;6.03;;;5.80;82.20;;;;;;4122778;28;20072;-89
2022/11/25 09:14:11;;;;;;;18.00;6.43;;;5.90;82.30;;;;;;4106593;28;20085;-89
2022/11/25 09:16:30;;;;;;;18.20;5.65;;;5.90;82.20;;;;;;4118548;28;20111;-89
2022/11/25 09:18:49;;;;;;;20.50;5.38;;;5.90;82.20;;;;;;4118806;28;20045;-88
2022/11/25 09:21:13;;;;;;;16.02;5.38;;;5.90;82.20;;;;;;4120560;28;20045;-88
2022/11/25 09:23:32;;;;;;;21.77;5.13;;;6.00;82.20;;;;;;4109662;28;20049;-90
2022/11/25 09:25:53;;;;;;;16.30;5.18;;;6.00;82.10;;;;;;4117423;28;20053;-89
2022/11/25 09:28:12;;;;;;;17.25;5.60;;;6.00;82.10;;;;;;4121754;28;20086;-90
2022/11/25 09:30:32;;;;;;;16.52;5.63;;;6.00;82.00;;;;;;4101119;28;20107;-89
2022/11/25 09:32:53;;;;;;;15.05;4.68;;;6.00;82.00;;;;;;4117601;28;20037;-89
2022/11/25 09:35:12;;;;;;;13.95;4.68;;;6.00;82.00;;;;;;4104448;28;20041;-89
2022/11/25 09:37:31;;;;;;;15.18;5.75;;;6.10;82.10;;;;;;4116406;28;20038;-90
2022/11/25 09:39:54;;;;;;;13.00;4.97;;;6.10;82.00;;;;;;4130649;28;20042;-89
2022/11/25 09:48:21;;;;;;;16.75;5.80;;;6.10;81.90;;;;;;4114582;28;20049;-88
2022/11/25 09:50:52;;;;;;;18.05;4.88;;;6.20;81.90;;;;;;4123540;28;20040;-90
2022/11/25 09:53:49;;;;;;;18.55;5.07;;;6.20;81.80;;;;;;4102302;28;20327;-88
2022/11/25 09:56:20;;;;;;;17.67;5.97;;;6.20;81.80;;;;;;4116063;28;20036;-89
2022/11/25 09:59:20;;;;;;;16.13;5.50;;;6.30;81.80;;;;;;4121072;28;20041;-89
2022/11/25 10:01:58;;;;;;;15.65;5.28;;;6.20;81.70;;;;;;4103290;28;20293;-89
2022/11/25 10:04:31;;;;;;;16.48;5.80;;;6.30;81.70;;;;;;4122115;28;20181;-90
2022/11/25 10:06:57;;;;;;;14.98;5.22;;;6.20;81.60;;;;;;4120222;28;20574;-89
2022/11/25 10:09:21;;;;;;;15.27;5.68;;;6.40;81.60;;;;;;4106426;28;20041;-89
2022/11/25 10:11:55;;;;;;;16.30;5.18;;;6.30;81.60;;;;;;4120385;28;20050;-89
2022/11/25 10:14:26;;;;;;;15.50;5.75;;;6.30;81.60;;;;;;4105969;28;20110;-89
2022/11/25 10:16:51;;;;;;;18.77;5.85;;;6.30;81.50;;;;;;4105525;28;20057;-89
2022/11/25 10:19:21;;;;;;;12.32;5.90;;;6.40;81.50;;;;;;4116916;28;20089;-88
2022/11/25 10:21:40;;;;;;;10.77;4.93;;;6.30;81.40;;;;;;4117091;28;20090;-89
2022/11/25 10:24:01;;;;;;;16.10;5.57;;;6.40;81.40;;;;;;4104452;28;20058;-89
2022/11/25 10:26:28;;;;;;;18.92;5.53;;;6.40;81.40;;;;;;4119612;28;20045;-89
2022/11/25 10:28:54;;;;;;;15.07;5.45;;;6.30;81.30;;;;;;4116809;28;20036;-88
2022/11/25 10:31:22;;;;;;;20.95;5.45;;;6.40;81.30;;;;;;4113164;28;20116;-90
2022/11/25 10:33:45;;;;;;;12.13;5.05;;;6.40;82.00;;;;;;4104170;28;20053;-89
2022/11/25 10:36:23;;;;;;;14.93;5.05;;;6.50;81.30;;;;;;4104974;28;20077;-89
2022/11/25 10:39:17;;;;;;;14.40;5.70;;;6.40;81.10;;;;;;4119844;28;20100;-89
2022/11/25 10:41:45;;;;;;;14.15;5.40;;;6.40;81.00;;;;;;4099533;28;20411;-89
2022/11/25 10:44:24;;;;;;;16.27;5.00;;;6.40;81.10;;;;;;4121366;28;20106;-89
2022/11/25 10:46:56;;;;;;;13.20;5.18;;;6.40;81.10;;;;;;4107233;28;20042;-88
2022/11/25 10:49:29;;;;;;;15.23;5.18;;;6.50;81.20;;;;;;4104909;28;20129;-88
2022/11/25 10:51:50;;;;;;;15.07;4.90;;;6.40;81.00;;;;;;4118586;28;20173;-89
2022/11/25 10:54:10;;;;;;;15.43;5.38;;;6.60;81.00;;;;;;4106229;28;20037;-89
2022/11/25 10:56:30;;;;;;;20.00;5.88;;;6.50;80.90;;;;;;4119575;28;20054;-88
2022/11/25 10:58:49;;;;;;;11.48;4.95;;;6.50;80.80;;;;;;4104557;28;20042;-89
2022/11/25 11:01:24;;;;;;;15.40;5.32;;;6.50;80.80;;;;;;4105385;28;20110;-89
2022/11/25 11:03:53;;;;;;;20.33;5.15;;;6.50;81.60;;;;;;4114840;28;20088;-88
2022/11/25 11:06:36;;;;;;;16.60;6.10;;;6.50;80.80;;;;;;4108447;28;20072;-88
2022/11/25 11:08:56;;;;;;;16.55;5.80;;;6.50;80.80;;;;;;4118564;28;20898;-89
2022/11/25 11:11:22;;;;;;;19.00;5.07;;;6.50;80.80;;;;;;4096878;28;20065;-88
2022/11/25 11:13:41;;;;;;;13.38;4.80;;;6.50;80.80;;;;;;4112345;28;20163;-89
2022/11/25 11:16:02;;;;;;;17.90;5.35;;;6.50;80.90;;;;;;4115098;28;20069;-89
2022/11/25 11:18:36;;;;;;;16.25;5.15;;;6.50;80.80;;;;;;4112940;28;20368;-90
2022/11/25 11:20:57;;;;;;;;;;;6.50;80.80;;;;;;4111613;28;20073;-89
2022/11/25 11:23:17;;;;;;;20.00;5.40;;;6.60;80.90;;;;;;4113273;28;19952;-89
2022/11/25 11:25:38;;;;;;;16.73;5.15;;;6.60;80.70;;;;;;4108112;28;20046;-88
2022/11/25 11:27:58;;;;;;;20.00;6.28;;;6.60;80.60;;;;;;4110586;28;20034;-89
2022/11/25 11:30:20;;;;;;;18.30;5.47;;;6.60;80.70;;;;;;4095356;28;20042;-89
2022/11/25 11:32:44;;;;;;;12.55;5.25;;;6.60;80.70;;;;;;4101336;28;20081;-88
2022/11/25 11:35:21;;;;;;;12.05;4.82;;;6.60;80.70;;;;;;4116039;28;20824;-88
2022/11/25 11:37:51;;;;;;;13.95;5.30;;;6.60;80.70;;;;;;4102759;28;20094;-88
2022/11/25 11:40:38;;;;;;;14.65;4.65;;;6.60;80.60;;;;;;4103146;28;20050;-88
2022/11/25 11:43:22;;;;;;;11.73;5.05;;;6.70;80.70;;;;;;4095507;28;20560;-88
2022/11/25 11:46:05;;;;;;;14.25;5.00;;;6.60;80.60;;;;;;4099870;28;20078;-89
2022/11/25 11:48:32;;;;;;;15.55;5.57;;;6.60;80.60;;;;;;4098743;28;20085;-88
2022/11/25 11:51:22;;;;;;;15.13;5.47;;;6.60;80.50;;;;;;4111268;28;20037;-89
2022/11/25 11:54:05;;;;;;;12.32;5.10;;;6.60;80.60;;;;;;4110793;28;20155;-89
2022/11/25 11:56:30;;;;;;;11.80;4.85;;;6.60;80.50;;;;;;4096676;28;20137;-89
2022/11/25 11:59:12;;;;;;;13.75;5.40;;;6.60;80.50;;;;;;4093779;28;20666;-88
2022/11/25 12:01:45;;;;;;;14.38;5.38;;;6.70;80.50;;;;;;4067842;28;20077;-88
2022/11/25 12:04:32;;;;;;;12.85;5.57;;;6.70;80.60;;;;;;4095207;28;20050;-88
2022/11/25 12:07:05;;;;;;;14.50;5.47;;;6.60;80.50;;;;;;4118590;28;20284;-89
2022/11/25 12:09:27;;;;;;;13.55;5.50;;;6.70;80.50;;;;;;4108133;28;20038;-88
2022/11/25 12:11:57;;;;;;;16.25;5.55;;;6.70;80.50;;;;;;4107940;28;20101;-89
2022/11/25 12:14:42;;;;;;;12.93;5.35;;;6.70;80.50;;;;;;4117119;28;20042;-88
2022/11/25 12:17:06;;;;;;;;;;;6.70;80.50;;;;;;4100830;28;20150;-89
2022/11/25 12:19:51;;;;;;;15.60;5.45;;;6.70;80.60;;;;;;4123293;28;19960;-88
2022/11/25 12:22:28;;;;;;;11.48;5.55;;;6.70;80.40;;;;;;4108223;28;20069;-88
2022/11/25 12:25:11;;;;;;;11.18;5.55;;;6.70;80.40;;;;;;4122700;28;20735;-88
2022/11/25 12:27:52;;;;;;;12.02;5.70;;;6.70;80.40;;;;;;4102268;28;20047;-89
2022/11/25 12:30:20;;;;;;;15.48;6.20;;;6.70;80.40;;;;;;4120878;28;20080;-88
2022/11/25 12:33:13;;;;;;;16.60;5.57;;;6.70;80.50;;;;;;4120880;28;20065;-90
2022/11/25 12:35:54;;;;;;;12.65;6.18;;;6.70;80.60;;;;;;4117128;28;20216;-89
2022/11/25 12:38:37;;;;;;;12.75;6.03;;;6.70;80.60;;;;;;4097450;28;20097;-88